createdAt,value
2018-11-07T00:01:03.479Z,10.63
2018-11-07T00:03:36.808Z,24.87
2018-11-07T00:06:09.947Z,13.23
2018-11-07T00:08:43.174Z,8.07
2018-11-07T00:11:16.522Z,9.53
2018-11-07T00:13:49.676Z,9.80
2018-11-07T00:16:23.015Z,6.23
2018-11-07T00:18:56.106Z,8.03
2018-11-07T00:21:29.580Z,6.17
2018-11-07T00:24:02.945Z,5.37
2018-11-07T00:26:36.217Z,6.03
2018-11-07T00:29:09.375Z,6.33
2018-11-07T00:31:42.792Z,5.57
2018-11-07T00:34:16.043Z,5.77
2018-11-07T00:36:49.586Z,5.97
2018-11-07T00:39:22.757Z,5.10
2018-11-07T00:41:56.080Z,6.13
2018-11-07T00:44:29.395Z,5.33
2018-11-07T00:47:02.703Z,5.40
2018-11-07T00:49:35.828Z,5.00
2018-11-07T00:52:09.092Z,5.03
2018-11-07T00:54:42.191Z,4.90
2018-11-07T00:57:15.532Z,6.57
2018-11-07T00:59:48.571Z,5.97
2018-11-07T01:02:21.828Z,8.90
2018-11-07T01:04:54.771Z,8.37
2018-11-07T01:07:28.089Z,7.13
2018-11-07T01:10:01.701Z,6.93
2018-11-07T01:12:35.210Z,7.87
2018-11-07T01:15:09.197Z,8.80
2018-11-07T01:17:42.505Z,8.03
2018-11-07T01:20:16.575Z,7.27
2018-11-07T01:22:50.165Z,5.23
2018-11-07T01:25:23.598Z,5.10
2018-11-07T01:27:56.996Z,5.60
2018-11-07T01:30:30.044Z,5.53
2018-11-07T01:33:03.262Z,4.20
2018-11-07T01:35:36.363Z,5.10
2018-11-07T01:38:09.760Z,6.33
2018-11-07T01:40:43.037Z,4.73
2018-11-07T01:43:16.542Z,4.10
2018-11-07T01:45:49.839Z,4.03
2018-11-07T01:50:55.988Z,5.20
2018-11-07T01:53:29.473Z,4.33
2018-11-07T01:56:02.797Z,7.60
2018-11-07T01:58:36.146Z,9.30
2018-11-07T02:01:09.424Z,9.90
2018-11-07T02:03:43.592Z,11.70
2018-11-07T02:06:16.643Z,13.63
2018-11-07T02:08:50.200Z,12.63
2018-11-07T02:11:23.711Z,13.20
2018-11-07T02:13:57.432Z,8.93
2018-11-07T02:16:30.660Z,10.57
2018-11-07T02:19:03.549Z,9.97
2018-11-07T02:21:36.872Z,14.07
2018-11-07T02:24:10.716Z,12.67
2018-11-07T02:26:44.072Z,12.70
2018-11-07T02:29:18.098Z,10.70
2018-11-07T02:31:52.033Z,10.37
2018-11-07T02:34:25.154Z,8.43
2018-11-07T02:36:58.642Z,10.13
2018-11-07T02:39:32.346Z,9.07
2018-11-07T02:45:26.037Z,11.20
2018-11-07T02:47:59.197Z,9.80
2018-11-07T02:50:32.940Z,8.57
2018-11-07T02:53:06.047Z,8.00
2018-11-07T02:55:39.187Z,8.30
2018-11-07T02:58:12.311Z,8.67
2018-11-07T03:04:16.513Z,7.93
2018-11-07T03:06:49.855Z,8.57
2018-11-07T03:09:23.227Z,7.83
2018-11-07T03:11:56.255Z,7.47
2018-11-07T03:14:29.216Z,7.70
2018-11-07T03:17:02.217Z,9.17
2018-11-07T03:19:35.500Z,8.77
2018-11-07T03:22:08.823Z,8.13
2018-11-07T03:24:42.079Z,8.50
2018-11-07T03:27:15.409Z,9.40
2018-11-07T03:29:48.696Z,9.23
2018-11-07T03:32:22.004Z,7.57
2018-11-07T03:34:55.192Z,8.90
2018-11-07T03:37:28.536Z,8.53
2018-11-07T03:40:01.751Z,9.20
2018-11-07T03:42:35.544Z,8.17
2018-11-07T03:45:08.707Z,9.10
2018-11-07T03:47:42.627Z,8.80
2018-11-07T03:50:15.569Z,8.47
2018-11-07T03:52:48.656Z,9.40
2018-11-07T03:55:21.820Z,9.90
2018-11-07T03:57:55.182Z,8.73
2018-11-07T04:00:28.556Z,8.43
2018-11-07T04:03:02.468Z,8.60
2018-11-07T04:05:39.229Z,8.93
2018-11-07T04:08:12.627Z,9.03
2018-11-07T04:10:45.838Z,9.10
2018-11-07T04:13:18.999Z,9.77
2018-11-07T04:15:53.093Z,9.43
2018-11-07T04:18:26.401Z,9.70
2018-11-07T04:20:59.559Z,8.93
2018-11-07T04:26:54.037Z,9.27
2018-11-07T04:29:28.044Z,9.70
2018-11-07T04:32:02.198Z,9.40
2018-11-07T04:34:35.631Z,8.67
2018-11-07T04:37:09.196Z,9.90
2018-11-07T04:39:46.671Z,8.60
2018-11-07T04:42:20.404Z,8.67
2018-11-07T04:44:54.118Z,9.37
2018-11-07T04:47:27.817Z,9.43
2018-11-07T04:50:01.446Z,9.17
2018-11-07T04:52:35.251Z,9.63
2018-11-07T04:55:08.595Z,9.27
2018-11-07T04:57:41.965Z,9.13
2018-11-07T05:00:15.679Z,9.03
2018-11-07T05:02:49.280Z,10.17
2018-11-07T05:05:22.860Z,9.90
2018-11-07T05:07:56.316Z,10.30
2018-11-07T05:10:29.948Z,9.70
2018-11-07T05:13:03.516Z,10.50
2018-11-07T05:15:36.924Z,10.17
2018-11-07T05:18:10.399Z,9.50
2018-11-07T05:20:43.896Z,10.23
2018-11-07T05:23:17.806Z,8.70
2018-11-07T05:25:51.292Z,8.77
2018-11-07T05:28:25.363Z,8.87
2018-11-07T05:30:59.211Z,8.97
2018-11-07T05:33:32.810Z,9.47
2018-11-07T05:36:06.120Z,8.00
2018-11-07T05:38:39.680Z,8.43
2018-11-07T05:41:48.505Z,8.70
2018-11-07T05:44:23.092Z,8.27
2018-11-07T05:46:57.315Z,8.33
2018-11-07T05:49:30.927Z,9.17
2018-11-07T05:52:04.518Z,9.23
2018-11-07T05:54:37.624Z,8.90
2018-11-07T05:57:10.779Z,10.03
2018-11-07T05:59:43.974Z,9.00
2018-11-07T06:02:17.320Z,9.53
2018-11-07T06:08:10.809Z,9.17
2018-11-07T06:10:43.435Z,9.93
2018-11-07T06:13:16.501Z,9.30
2018-11-07T06:15:49.366Z,8.83
2018-11-07T06:18:22.376Z,7.97
2018-11-07T06:20:55.460Z,7.73
2018-11-07T06:23:28.190Z,8.40
2018-11-07T06:26:00.829Z,7.37
2018-11-07T06:28:34.124Z,7.30
2018-11-07T06:31:07.527Z,7.17
2018-11-07T06:33:40.780Z,7.80
2018-11-07T06:36:13.736Z,7.57
2018-11-07T06:42:08.432Z,7.43
2018-11-07T06:48:12.796Z,7.30
2018-11-07T06:50:45.603Z,7.50
2018-11-07T06:53:18.698Z,7.67
2018-11-07T06:55:51.828Z,7.57
2018-11-07T06:58:25.181Z,7.10
2018-11-07T07:00:58.250Z,6.77
2018-11-07T07:06:52.681Z,6.93
2018-11-07T07:12:46.485Z,6.90
2018-11-07T07:15:19.291Z,8.03
2018-11-07T07:17:52.630Z,8.97
2018-11-07T07:20:25.896Z,9.37
2018-11-07T07:22:59.174Z,10.00
2018-11-07T07:25:31.658Z,9.77
2018-11-07T07:28:04.908Z,9.60
2018-11-07T07:30:37.663Z,9.07
2018-11-07T07:33:11.258Z,10.30
2018-11-07T07:35:44.415Z,10.67
2018-11-07T07:38:17.220Z,10.50
2018-11-07T07:40:50.334Z,10.43
2018-11-07T07:43:23.356Z,9.30
2018-11-07T07:49:17.470Z,10.87
2018-11-07T07:51:50.396Z,10.80
2018-11-07T07:54:23.183Z,10.37
2018-11-07T07:56:56.151Z,10.20
2018-11-07T07:59:28.750Z,10.90
2018-11-07T08:02:01.136Z,9.93
2018-11-07T08:04:34.442Z,11.17
2018-11-07T08:10:39.376Z,10.67
2018-11-07T08:13:12.332Z,10.33
2018-11-07T08:15:45.644Z,12.20
2018-11-07T08:18:18.784Z,11.53
2018-11-07T08:20:51.974Z,11.20
2018-11-07T08:23:24.743Z,10.70
2018-11-07T08:25:57.827Z,10.50
2018-11-07T08:28:30.682Z,10.40
2018-11-07T08:31:03.900Z,10.57
2018-11-07T08:33:36.829Z,10.03
2018-11-07T08:36:10.741Z,9.00
2018-11-07T08:38:43.800Z,10.00
2018-11-07T08:41:16.802Z,9.20
2018-11-07T08:43:50.838Z,8.40
2018-11-07T08:46:23.731Z,8.77
2018-11-07T08:49:31.928Z,8.10
2018-11-07T08:52:04.753Z,7.13
2018-11-07T08:54:37.660Z,8.33
2018-11-07T08:57:10.640Z,7.60
2018-11-07T08:59:43.491Z,8.47
2018-11-07T09:02:16.416Z,8.27
2018-11-07T09:04:50.004Z,8.33
2018-11-07T09:07:51.792Z,7.43
2018-11-07T09:10:25.456Z,8.63
2018-11-07T09:12:58.562Z,7.87
2018-11-07T09:15:31.165Z,7.93
2018-11-07T09:18:04.037Z,7.93
2018-11-07T09:20:36.198Z,8.23
2018-11-07T09:23:09.427Z,9.77
2018-11-07T09:29:04.619Z,9.13
2018-11-07T09:31:38.129Z,10.03
2018-11-07T09:34:22.074Z,9.90
2018-11-07T09:36:55.536Z,10.40
2018-11-07T09:39:28.973Z,10.23
2018-11-07T09:42:02.291Z,9.50
2018-11-07T09:44:35.914Z,11.53
2018-11-07T09:47:08.738Z,9.93
2018-11-07T09:49:42.489Z,9.37
2018-11-07T09:52:15.917Z,9.00
2018-11-07T09:54:49.389Z,9.53
2018-11-07T09:57:22.213Z,9.63
2018-11-07T09:59:55.821Z,9.73
2018-11-07T10:02:29.225Z,9.47
2018-11-07T10:05:02.249Z,8.73
2018-11-07T10:07:35.122Z,9.17
2018-11-07T10:10:09.408Z,9.30
2018-11-07T10:12:42.748Z,8.53
2018-11-07T10:15:16.243Z,9.87
2018-11-07T10:17:49.367Z,9.73
2018-11-07T10:20:24.608Z,9.80
2018-11-07T10:22:57.829Z,10.70
2018-11-07T10:25:30.856Z,11.57
2018-11-07T10:28:04.124Z,10.97
2018-11-07T10:30:37.010Z,11.23
2018-11-07T10:33:10.134Z,11.93
2018-11-07T10:35:43.442Z,11.90
2018-11-07T10:38:16.265Z,12.90
2018-11-07T10:40:49.557Z,13.97
2018-11-07T10:43:22.437Z,15.43
2018-11-07T10:45:55.547Z,14.13
2018-11-07T10:48:28.456Z,11.43
2018-11-07T10:51:01.827Z,10.23
2018-11-07T10:53:34.817Z,11.57
2018-11-07T10:56:08.124Z,10.93
2018-11-07T10:58:41.134Z,9.97
2018-11-07T11:01:18.623Z,11.03
2018-11-07T11:03:51.913Z,11.17
2018-11-07T11:06:24.890Z,11.20
2018-11-07T11:08:57.837Z,9.17
2018-11-07T11:11:31.122Z,9.50
2018-11-07T11:14:04.626Z,11.33
2018-11-07T11:16:37.815Z,10.50
2018-11-07T11:19:10.846Z,10.83
2018-11-07T11:21:43.768Z,10.80
2018-11-07T11:24:16.846Z,9.90
2018-11-07T11:27:33.543Z,10.77
2018-11-07T11:30:06.420Z,11.43
2018-11-07T11:32:40.264Z,9.83
2018-11-07T11:35:13.844Z,9.20
2018-11-07T11:37:46.733Z,9.00
2018-11-07T11:40:20.496Z,9.93
2018-11-07T11:46:21.699Z,10.97
2018-11-07T11:48:54.809Z,9.93
2018-11-07T11:51:28.132Z,8.50
2018-11-07T11:54:00.852Z,8.83
2018-11-07T11:56:34.379Z,10.03
2018-11-07T11:59:07.760Z,10.13
2018-11-07T12:02:16.132Z,10.47
2018-11-07T12:04:49.090Z,12.10
2018-11-07T12:07:22.235Z,10.70
2018-11-07T12:09:55.235Z,10.20
2018-11-07T12:12:28.241Z,10.67
2018-11-07T12:15:02.218Z,11.73
2018-11-07T12:17:35.367Z,11.70
2018-11-07T12:20:10.365Z,11.47
2018-11-07T12:22:46.248Z,10.77
2018-11-07T12:25:25.050Z,10.37
2018-11-07T12:28:01.196Z,9.53
2018-11-07T12:30:36.194Z,9.43
2018-11-07T12:33:13.098Z,9.17
2018-11-07T12:35:46.155Z,10.43
2018-11-07T12:38:19.474Z,9.83
2018-11-07T12:40:52.630Z,9.60
2018-11-07T12:43:25.977Z,8.70
2018-11-07T12:45:59.148Z,9.33
2018-11-07T12:48:32.297Z,10.53
2018-11-07T12:51:05.594Z,10.37
2018-11-07T12:53:39.043Z,8.30
2018-11-07T12:56:12.226Z,7.50
2018-11-07T12:58:45.475Z,8.17
2018-11-07T13:01:18.575Z,8.47
2018-11-07T13:03:51.766Z,8.00
2018-11-07T13:06:24.994Z,8.03
2018-11-07T13:09:01.517Z,8.17
2018-11-07T13:15:05.974Z,8.83
2018-11-07T13:17:39.409Z,8.00
2018-11-07T13:20:15.054Z,7.77
2018-11-07T13:22:49.760Z,8.80
2018-11-07T13:25:24.010Z,7.60
2018-11-07T13:31:24.307Z,7.47
2018-11-07T13:33:56.895Z,8.10
2018-11-07T13:36:29.435Z,8.57
2018-11-07T13:39:02.829Z,8.47
2018-11-07T13:41:35.303Z,8.20
2018-11-07T13:44:07.984Z,8.30
2018-11-07T13:46:40.724Z,8.40
2018-11-07T13:49:13.464Z,8.80
2018-11-07T13:55:36.300Z,8.27
2018-11-07T13:58:09.758Z,8.27
2018-11-07T14:00:43.075Z,7.93
2018-11-07T14:03:16.467Z,8.90
2018-11-07T14:05:51.232Z,9.57
2018-11-07T14:08:26.484Z,8.20
2018-11-07T14:10:59.360Z,8.27
2018-11-07T14:13:32.963Z,8.87
2018-11-07T14:16:06.333Z,8.67
2018-11-07T14:18:39.980Z,9.07
2018-11-07T14:21:13.317Z,8.93
2018-11-07T14:23:46.146Z,10.03
2018-11-07T14:26:22.351Z,8.93
2018-11-07T14:28:57.851Z,7.93
2018-11-07T14:31:41.900Z,8.37
2018-11-07T14:34:18.466Z,9.40
2018-11-07T14:36:52.000Z,9.17
2018-11-07T14:42:53.882Z,8.20
2018-11-07T14:45:26.941Z,8.77
2018-11-07T14:47:59.531Z,8.60
2018-11-07T14:50:34.894Z,7.90
2018-11-07T14:56:43.609Z,6.90
2018-11-07T14:59:16.731Z,6.53
2018-11-07T15:01:49.996Z,7.40
2018-11-07T15:04:23.018Z,7.70
2018-11-07T15:06:58.408Z,5.60
2018-11-07T15:09:33.770Z,4.90
2018-11-07T15:12:06.346Z,4.57
2018-11-07T15:14:52.119Z,4.73
2018-11-07T15:17:24.693Z,4.37
2018-11-07T15:19:58.339Z,4.30
2018-11-07T15:22:31.087Z,4.00
2018-11-07T15:25:09.969Z,3.63
2018-11-07T15:27:44.364Z,3.80
2018-11-07T15:30:19.442Z,3.13
2018-11-07T15:32:55.048Z,4.97
2018-11-07T15:35:27.456Z,5.43
2018-11-07T15:38:01.047Z,7.93
2018-11-07T15:40:33.747Z,10.27
2018-11-07T15:43:07.018Z,6.53
2018-11-07T15:45:39.525Z,6.67
2018-11-07T15:48:12.221Z,7.27
2018-11-07T15:50:49.051Z,5.70
2018-11-07T15:53:21.704Z,4.87
2018-11-07T15:56:01.611Z,5.47
2018-11-07T15:58:34.226Z,4.20
2018-11-07T16:05:01.515Z,4.17
2018-11-07T16:07:50.359Z,3.60
2018-11-07T16:10:29.266Z,4.33
2018-11-07T16:15:36.640Z,4.12
2018-11-07T16:24:13.231Z,3.63
2018-11-07T16:26:49.024Z,3.67
2018-11-07T16:29:23.934Z,3.62
2018-11-07T16:49:42.884Z,4.10
2018-11-07T16:52:15.473Z,4.03
2018-11-07T16:54:48.750Z,4.23
2018-11-07T16:57:22.120Z,4.60
2018-11-07T16:59:55.014Z,4.37
2018-11-07T17:02:27.644Z,4.97
2018-11-07T17:05:00.253Z,4.60
2018-11-07T17:07:35.622Z,4.83
2018-11-07T17:10:10.445Z,4.90
2018-11-07T17:12:43.924Z,8.03
2018-11-07T17:15:16.502Z,4.00
2018-11-07T17:17:52.835Z,5.07
2018-11-07T17:20:25.648Z,3.77
2018-11-07T17:22:59.001Z,4.87
2018-11-07T17:25:32.361Z,18.12
2018-11-07T17:28:05.419Z,5.60
2018-11-07T17:30:38.616Z,8.03
2018-11-07T17:33:12.669Z,6.03
2018-11-07T17:35:47.280Z,7.43
2018-11-07T17:38:20.569Z,9.03
2018-11-07T21:41:45.613Z,3.50
2018-11-07T22:52:16.483Z,4.80
